createdAt,value
2022-11-23T00:01:29.686Z,78.09
2022-11-23T00:03:59.833Z,78.38
2022-11-23T00:06:27.905Z,78.48
2022-11-23T00:08:56.055Z,78.54
2022-11-23T00:11:25.313Z,78.35
2022-11-23T00:13:53.543Z,78.57
2022-11-23T00:16:27.719Z,78.54
2022-11-23T00:19:00.612Z,78.45
2022-11-23T00:21:31.843Z,78.62
2022-11-23T00:23:59.794Z,78.47
2022-11-23T00:26:27.938Z,78.56
2022-11-23T00:28:55.656Z,78.58
2022-11-23T00:31:23.957Z,78.12
2022-11-23T00:33:53.624Z,78.20
2022-11-23T00:36:21.892Z,77.48
2022-11-23T00:38:50.720Z,77.54
2022-11-23T00:41:24.692Z,77.55
2022-11-23T00:43:52.755Z,77.41
2022-11-23T00:46:21.995Z,77.38
2022-11-23T00:48:51.652Z,77.33
2022-11-23T00:51:25.284Z,77.48
2022-11-23T00:53:53.052Z,77.47
2022-11-23T00:56:21.573Z,77.43
2022-11-23T00:58:51.344Z,77.39
2022-11-23T01:01:24.125Z,77.45
2022-11-23T01:03:54.732Z,77.51
2022-11-23T01:06:25.377Z,77.63
2022-11-23T01:08:56.497Z,77.41
2022-11-23T01:11:26.322Z,77.61
2022-11-23T01:13:54.305Z,77.39
2022-11-23T01:16:28.407Z,77.35
2022-11-23T01:18:58.424Z,77.18
2022-11-23T01:21:27.751Z,77.19
2022-11-23T01:23:56.533Z,77.12
2022-11-23T01:26:24.602Z,77.14
2022-11-23T01:28:52.810Z,77.12
2022-11-23T01:31:23.264Z,77.19
2022-11-23T01:33:55.636Z,77.22
2022-11-23T01:36:26.200Z,77.31
2022-11-23T01:38:53.957Z,77.50
2022-11-23T01:41:28.060Z,77.37
2022-11-23T01:43:55.734Z,77.10
2022-11-23T01:46:23.747Z,77.30
2022-11-23T01:48:58.844Z,77.41
2022-11-23T01:51:36.735Z,77.75
2022-11-23T01:54:15.975Z,77.59
2022-11-23T01:56:49.177Z,77.47
2022-11-23T01:59:19.841Z,77.65
2022-11-23T02:01:47.694Z,77.66
2022-11-23T02:04:23.687Z,77.88
2022-11-23T02:06:51.976Z,77.71
2022-11-23T02:09:21.299Z,77.81
2022-11-23T02:11:49.125Z,77.91
2022-11-23T02:14:22.051Z,77.96
2022-11-23T02:16:51.448Z,77.93
2022-11-23T02:19:51.326Z,78.09
2022-11-23T02:22:43.400Z,78.02
2022-11-23T02:25:20.509Z,78.14
2022-11-23T02:27:48.854Z,78.06
2022-11-23T02:30:16.687Z,78.23
2022-11-23T02:32:45.419Z,78.31
2022-11-23T02:35:13.503Z,78.51
2022-11-23T02:37:43.527Z,78.81
2022-11-23T02:40:25.481Z,78.83
2022-11-23T02:42:53.380Z,78.51
2022-11-23T02:45:38.602Z,78.57
2022-11-23T02:48:06.804Z,78.53
2022-11-23T02:50:34.690Z,78.10
2022-11-23T02:53:02.374Z,78.16
2022-11-23T02:55:30.525Z,77.96
2022-11-23T02:57:58.332Z,77.94
2022-11-23T03:00:26.216Z,77.51
2022-11-23T03:02:54.132Z,77.69
2022-11-23T03:05:22.546Z,77.66
2022-11-23T03:07:50.342Z,77.54
2022-11-23T03:10:18.621Z,77.33
2022-11-23T03:12:46.336Z,77.59
2022-11-23T03:15:14.095Z,77.67
2022-11-23T03:17:41.837Z,77.65
2022-11-23T03:20:09.964Z,77.64
2022-11-23T03:22:37.767Z,77.49
2022-11-23T03:25:05.824Z,77.48
2022-11-23T03:27:34.852Z,77.67
2022-11-23T03:30:02.741Z,77.66
2022-11-23T03:32:30.402Z,77.48
2022-11-23T03:34:58.054Z,77.69
2022-11-23T03:37:26.563Z,77.30
2022-11-23T03:39:54.220Z,77.33
2022-11-23T03:42:21.956Z,77.26
2022-11-23T03:44:49.802Z,77.21
2022-11-23T03:47:17.635Z,77.21
2022-11-23T03:49:45.270Z,77.36
2022-11-23T03:52:13.014Z,77.37
2022-11-23T03:54:40.766Z,77.42
2022-11-23T03:57:08.416Z,77.50
2022-11-23T03:59:36.125Z,77.66
2022-11-23T04:02:03.867Z,77.62
2022-11-23T04:04:31.459Z,77.91
2022-11-23T04:06:59.099Z,77.80
2022-11-23T04:09:26.985Z,77.67
2022-11-23T04:11:54.747Z,77.89
2022-11-23T04:14:22.491Z,78.17
2022-11-23T04:16:50.163Z,78.06
2022-11-23T04:19:17.831Z,78.10
2022-11-23T04:21:45.511Z,78.55
2022-11-23T04:24:13.273Z,78.56
2022-11-23T04:26:41.651Z,78.52
2022-11-23T04:29:09.368Z,78.40
2022-11-23T04:31:37.174Z,79.03
2022-11-23T04:34:04.848Z,78.75
2022-11-23T04:36:32.603Z,78.93
2022-11-23T04:39:00.326Z,78.69
2022-11-23T04:41:28.089Z,78.88
2022-11-23T04:43:55.881Z,78.81
2022-11-23T04:46:23.668Z,78.83
2022-11-23T04:48:51.324Z,78.97
2022-11-23T04:51:18.994Z,78.96
2022-11-23T04:53:46.954Z,78.81
2022-11-23T04:56:14.734Z,78.90
2022-11-23T04:58:42.777Z,78.62
2022-11-23T05:01:10.623Z,79.02
2022-11-23T05:03:38.349Z,79.15
2022-11-23T05:06:08.459Z,79.10
2022-11-23T05:08:36.119Z,78.68
2022-11-23T05:11:03.790Z,78.65
2022-11-23T05:13:31.501Z,78.40
2022-11-23T05:15:59.271Z,78.84
2022-11-23T05:18:27.144Z,78.78
2022-11-23T05:20:54.916Z,78.95
2022-11-23T05:23:22.599Z,78.95
2022-11-23T05:25:50.274Z,78.91
2022-11-23T05:28:39.533Z,79.07
2022-11-23T05:31:08.749Z,78.96
2022-11-23T05:33:37.013Z,79.06
2022-11-23T05:36:04.851Z,79.10
2022-11-23T05:38:32.515Z,79.16
2022-11-23T05:41:00.177Z,78.93
2022-11-23T05:43:28.048Z,79.08
2022-11-23T05:45:56.144Z,79.38
2022-11-23T05:48:23.890Z,79.19
2022-11-23T05:50:51.918Z,79.24
2022-11-23T05:53:19.849Z,79.07
2022-11-23T05:55:47.488Z,79.06
2022-11-23T05:58:15.247Z,79.68
2022-11-23T06:00:42.985Z,79.54
2022-11-23T06:03:10.735Z,79.38
2022-11-23T06:05:38.450Z,79.35
2022-11-23T06:08:06.188Z,79.61
2022-11-23T06:10:34.018Z,79.56
2022-11-23T06:13:06.052Z,79.71
2022-11-23T06:15:33.763Z,79.19
2022-11-23T06:18:02.925Z,79.46
2022-11-23T06:20:30.806Z,79.61
2022-11-23T06:22:58.654Z,79.89
2022-11-23T06:25:26.378Z,79.66
2022-11-23T06:27:58.737Z,79.46
2022-11-23T06:30:28.091Z,79.43
2022-11-23T06:32:56.100Z,79.68
2022-11-23T06:35:24.040Z,79.89
2022-11-23T06:37:55.763Z,79.96
2022-11-23T06:40:23.450Z,80.62
2022-11-23T06:42:51.224Z,80.44
2022-11-23T06:45:19.020Z,80.65
2022-11-23T06:47:46.690Z,80.79
2022-11-23T06:50:15.745Z,80.81
2022-11-23T06:52:43.375Z,81.14
2022-11-23T06:55:11.065Z,81.32
2022-11-23T06:57:38.712Z,80.83
2022-11-23T07:00:07.366Z,80.61
2022-11-23T07:02:35.285Z,80.67
2022-11-23T07:05:03.130Z,80.64
2022-11-23T07:07:30.909Z,80.70
2022-11-23T07:10:01.592Z,80.66
2022-11-23T07:12:31.546Z,81.10
2022-11-23T07:14:59.374Z,81.02
2022-11-23T07:17:27.102Z,81.12
2022-11-23T07:19:54.733Z,81.55
2022-11-23T07:22:22.373Z,82.48
2022-11-23T07:24:50.100Z,82.44
2022-11-23T07:27:19.070Z,83.05
2022-11-23T07:29:46.890Z,83.23
2022-11-23T07:32:16.074Z,83.21
2022-11-23T07:34:43.851Z,83.16
2022-11-23T07:37:11.667Z,83.01
2022-11-23T07:39:56.728Z,82.85
2022-11-23T07:42:35.565Z,82.90
2022-11-23T07:45:08.401Z,82.11
2022-11-23T07:47:36.020Z,81.99
2022-11-23T07:50:03.818Z,81.90
2022-11-23T07:52:31.712Z,82.05
2022-11-23T07:55:01.316Z,82.10
2022-11-23T07:57:29.415Z,82.46
2022-11-23T07:59:57.201Z,82.81
2022-11-23T08:02:25.051Z,82.98
2022-11-23T08:04:52.784Z,83.04
2022-11-23T08:07:20.600Z,83.33
2022-11-23T08:09:48.337Z,83.17
2022-11-23T08:12:16.032Z,83.12
2022-11-23T08:14:43.888Z,84.09
2022-11-23T08:17:11.626Z,84.21
2022-11-23T08:19:39.210Z,84.05
2022-11-23T08:22:06.899Z,84.10
2022-11-23T08:24:35.082Z,86.06
2022-11-23T08:27:02.869Z,86.46
2022-11-23T08:29:31.614Z,86.18
2022-11-23T08:31:59.413Z,85.97
2022-11-23T08:34:27.097Z,86.48
2022-11-23T08:36:54.708Z,86.38
2022-11-23T08:39:22.475Z,86.73
2022-11-23T08:41:50.197Z,86.41
2022-11-23T08:44:17.799Z,86.63
2022-11-23T08:46:45.512Z,86.84
2022-11-23T08:49:13.077Z,86.94
2022-11-23T08:51:43.391Z,87.33
2022-11-23T08:54:13.344Z,87.23
2022-11-23T08:56:41.070Z,87.06
2022-11-23T08:59:09.874Z,87.14
2022-11-23T09:01:37.604Z,86.76
2022-11-23T09:04:05.808Z,86.89
2022-11-23T09:06:36.933Z,87.03
2022-11-23T09:09:04.978Z,86.72
2022-11-23T09:11:32.646Z,86.54
2022-11-23T09:14:00.509Z,86.35
2022-11-23T09:16:33.585Z,86.00
2022-11-23T09:19:01.945Z,85.65
2022-11-23T09:21:34.520Z,85.66
2022-11-23T09:24:03.050Z,85.63
2022-11-23T09:26:32.815Z,85.49
2022-11-23T09:29:00.744Z,85.46
2022-11-23T09:31:30.005Z,85.40
2022-11-23T09:33:57.709Z,85.15
2022-11-23T09:36:25.403Z,84.96
2022-11-23T09:38:57.459Z,84.82
2022-11-23T09:41:47.051Z,84.72
2022-11-23T09:44:56.927Z,84.52
2022-11-23T09:47:56.913Z,84.30
2022-11-23T09:50:30.824Z,83.90
2022-11-23T09:53:05.400Z,83.97
2022-11-23T09:55:42.485Z,83.80
2022-11-23T09:58:17.712Z,83.07
2022-11-23T10:01:09.435Z,82.32
2022-11-23T10:03:43.880Z,82.22
2022-11-23T10:06:27.259Z,81.77
2022-11-23T10:09:12.889Z,81.47
2022-11-23T10:12:06.296Z,81.41
2022-11-23T10:15:01.458Z,80.71
2022-11-23T10:18:10.358Z,80.32
2022-11-23T10:20:43.438Z,80.17
2022-11-23T10:23:34.021Z,78.70
2022-11-23T10:26:01.648Z,77.33
2022-11-23T10:28:33.375Z,78.03
2022-11-23T10:31:13.393Z,77.64
2022-11-23T10:33:53.243Z,78.15
2022-11-23T10:36:20.910Z,78.25
2022-11-23T10:38:55.560Z,78.26
2022-11-23T10:41:23.311Z,78.03
2022-11-23T10:44:06.949Z,77.95
2022-11-23T10:46:38.400Z,77.28
2022-11-23T10:49:19.161Z,76.53
2022-11-23T10:51:55.297Z,75.46
2022-11-23T10:54:37.902Z,75.85
2022-11-23T10:57:43.889Z,76.03
2022-11-23T11:00:14.370Z,73.33
2022-11-23T11:02:46.311Z,74.31
2022-11-23T11:06:06.868Z,74.25
2022-11-23T11:08:21.708Z,72.72
2022-11-23T11:10:51.345Z,73.06
2022-11-23T11:13:24.972Z,73.27
2022-11-23T11:16:35.836Z,71.46
2022-11-23T11:19:22.372Z,71.97
2022-11-23T11:21:50.058Z,71.57
2022-11-23T11:24:41.604Z,71.72
2022-11-23T11:27:19.404Z,71.55
2022-11-23T11:29:46.946Z,70.04
2022-11-23T11:32:24.973Z,70.35
2022-11-23T11:35:12.827Z,69.75
2022-11-23T11:37:48.551Z,68.69
2022-11-23T11:40:31.044Z,68.21
2022-11-23T11:43:05.590Z,67.45
2022-11-23T11:45:38.068Z,68.17
2022-11-23T11:48:29.554Z,67.53
2022-11-23T11:51:17.395Z,67.07
2022-11-23T11:53:55.774Z,67.61
2022-11-23T11:56:37.801Z,66.87
2022-11-23T11:59:46.540Z,66.28
2022-11-23T12:02:31.070Z,66.49
2022-11-23T12:05:23.393Z,65.55
2022-11-23T12:08:10.641Z,66.51
2022-11-23T12:10:53.021Z,66.40
2022-11-23T12:13:26.868Z,66.73
2022-11-23T12:16:08.854Z,66.65
2022-11-23T12:18:39.267Z,66.39
2022-11-23T12:21:33.975Z,66.79
2022-11-23T12:24:22.042Z,66.62
2022-11-23T12:27:05.752Z,66.30
2022-11-23T12:30:10.290Z,66.35
2022-11-23T12:32:59.677Z,66.25
2022-11-23T12:35:55.369Z,66.04
2022-11-23T12:38:39.162Z,66.30
2022-11-23T12:41:12.602Z,66.63
2022-11-23T12:44:05.866Z,66.24
2022-11-23T12:46:47.043Z,65.40
2022-11-23T12:49:26.925Z,66.00
2022-11-23T12:52:00.543Z,65.65
2022-11-23T12:54:53.137Z,65.71
2022-11-23T12:57:39.398Z,65.36
2022-11-23T13:00:16.221Z,64.97
2022-11-23T13:02:43.768Z,65.20
2022-11-23T13:05:35.625Z,64.69
2022-11-23T13:08:24.888Z,63.74
2022-11-23T13:11:02.450Z,63.21
2022-11-23T13:13:51.087Z,63.53
2022-11-23T13:16:56.698Z,63.54
2022-11-23T13:19:51.289Z,63.99
2022-11-23T13:22:23.711Z,64.05
2022-11-23T13:25:11.265Z,64.22
2022-11-23T13:27:44.478Z,64.11
2022-11-23T13:30:35.634Z,64.65
2022-11-23T13:33:25.282Z,64.37
2022-11-23T13:36:03.536Z,64.74
2022-11-23T13:38:42.428Z,64.62
2022-11-23T13:41:39.285Z,64.35
2022-11-23T13:44:27.743Z,64.41
2022-11-23T13:47:07.079Z,64.47
2022-11-23T13:49:46.082Z,64.56
2022-11-23T13:52:29.806Z,64.63
2022-11-23T13:55:12.651Z,64.38
2022-11-23T13:57:46.711Z,64.62
2022-11-23T14:00:48.708Z,64.97
2022-11-23T14:03:53.412Z,65.13
2022-11-23T14:06:45.691Z,65.61
2022-11-23T14:09:31.335Z,65.89
2022-11-23T14:12:15.914Z,66.15
2022-11-23T14:15:08.360Z,66.36
2022-11-23T14:17:39.043Z,66.51
2022-11-23T14:20:29.950Z,66.70
2022-11-23T14:23:27.868Z,67.02
2022-11-23T14:26:15.929Z,67.36
2022-11-23T14:28:53.835Z,67.81
2022-11-23T14:31:52.828Z,68.03
2022-11-23T14:34:55.567Z,68.29
2022-11-23T14:37:42.671Z,68.40
2022-11-23T14:40:28.641Z,68.78
2022-11-23T14:42:57.875Z,69.02
2022-11-23T14:45:30.852Z,69.10
2022-11-23T14:47:58.637Z,69.50
2022-11-23T14:50:30.787Z,69.63
2022-11-23T14:53:00.251Z,69.96
2022-11-23T14:55:31.014Z,70.09
2022-11-23T14:58:06.423Z,70.27
2022-11-23T15:00:40.365Z,70.47
2022-11-23T15:03:48.727Z,70.64
2022-11-23T15:06:17.807Z,70.75
2022-11-23T15:08:48.637Z,70.73
2022-11-23T15:11:22.698Z,70.80
2022-11-23T15:13:56.392Z,70.98
2022-11-23T15:16:24.422Z,71.12
2022-11-23T15:18:53.000Z,71.09
2022-11-23T15:21:27.199Z,71.39
2022-11-23T15:24:01.142Z,71.39
2022-11-23T15:26:48.834Z,71.53
2022-11-23T15:29:37.441Z,71.55
2022-11-23T15:32:34.441Z,71.71
2022-11-23T15:35:09.263Z,71.49
2022-11-23T15:37:48.993Z,71.55
2022-11-23T15:40:19.114Z,71.78
2022-11-23T15:42:49.853Z,71.77
2022-11-23T15:45:45.520Z,71.82
2022-11-23T15:48:18.575Z,71.87
2022-11-23T15:50:57.896Z,71.86
2022-11-23T15:53:28.769Z,71.88
2022-11-23T15:56:00.695Z,71.90
2022-11-23T15:58:29.259Z,71.99
2022-11-23T16:01:13.903Z,72.14
2022-11-23T16:03:41.550Z,72.42
2022-11-23T16:06:14.992Z,72.24
2022-11-23T16:08:42.752Z,72.30
2022-11-23T16:11:32.021Z,72.25
2022-11-23T16:14:20.991Z,72.68
2022-11-23T16:16:59.674Z,72.59
2022-11-23T16:19:33.754Z,72.61
2022-11-23T16:22:08.444Z,72.65
2022-11-23T16:24:37.329Z,72.69
2022-11-23T16:27:14.173Z,72.71
2022-11-23T16:29:43.079Z,72.83
2022-11-23T16:32:28.601Z,72.85
2022-11-23T16:34:59.083Z,73.01
2022-11-23T16:37:27.480Z,73.02
2022-11-23T16:39:55.159Z,73.07
2022-11-23T16:42:22.960Z,73.20
2022-11-23T16:44:50.600Z,73.39
2022-11-23T16:47:23.199Z,73.73
2022-11-23T16:49:51.789Z,73.74
2022-11-23T16:52:20.195Z,73.64
2022-11-23T16:54:48.124Z,73.93
2022-11-23T16:57:28.266Z,73.91
2022-11-23T16:59:56.277Z,73.95
2022-11-23T17:02:24.077Z,74.16
2022-11-23T17:04:51.839Z,71.65
2022-11-23T17:07:19.545Z,70.77
2022-11-23T17:09:47.276Z,72.89
2022-11-23T17:12:19.688Z,74.50
2022-11-23T17:14:49.732Z,75.13
2022-11-23T17:17:23.222Z,75.81
2022-11-23T17:19:51.512Z,76.50
2022-11-23T17:22:20.992Z,76.81
2022-11-23T17:24:49.880Z,76.38
2022-11-23T17:27:23.377Z,77.24
2022-11-23T17:30:00.858Z,77.09
2022-11-23T17:32:29.243Z,77.84
2022-11-23T17:34:56.951Z,77.28
2022-11-23T17:37:25.650Z,77.36
2022-11-23T17:39:53.648Z,77.70
2022-11-23T17:42:21.811Z,78.44
2022-11-23T17:44:49.675Z,78.40
2022-11-23T17:47:31.483Z,77.82
2022-11-23T17:49:59.561Z,78.60
2022-11-23T17:52:27.471Z,78.56
2022-11-23T17:54:55.351Z,78.22
2022-11-23T17:57:25.372Z,78.63
2022-11-23T17:59:53.998Z,78.40
2022-11-23T18:02:22.461Z,78.57
2022-11-23T18:04:50.268Z,78.89
2022-11-23T18:07:18.063Z,78.90
2022-11-23T18:09:45.890Z,79.37
2022-11-23T18:12:13.611Z,80.04
2022-11-23T18:14:41.308Z,80.09
2022-11-23T18:17:09.014Z,80.13
2022-11-23T18:19:36.697Z,80.76
2022-11-23T18:22:04.338Z,80.16
2022-11-23T18:24:32.086Z,80.80
2022-11-23T18:26:59.805Z,81.30
2022-11-23T18:29:27.445Z,81.46
2022-11-23T18:31:55.160Z,82.69
2022-11-23T18:34:22.843Z,82.94
2022-11-23T18:36:50.473Z,83.26
2022-11-23T18:39:18.160Z,82.90
2022-11-23T18:41:45.806Z,84.07
2022-11-23T18:44:13.569Z,83.13
2022-11-23T18:46:42.289Z,83.13
2022-11-23T18:49:10.070Z,83.94
2022-11-23T18:51:37.768Z,83.93
2022-11-23T18:54:05.951Z,84.44
2022-11-23T18:56:33.670Z,84.41
2022-11-23T18:59:01.478Z,84.86
2022-11-23T19:01:29.344Z,86.30
2022-11-23T19:03:57.225Z,86.25
2022-11-23T19:06:25.221Z,85.87
2022-11-23T19:09:00.241Z,85.79
2022-11-23T19:11:29.673Z,86.06
2022-11-23T19:13:59.551Z,87.01
2022-11-23T19:16:31.117Z,88.63
2022-11-23T19:19:07.562Z,87.85
2022-11-23T19:21:37.338Z,87.67
2022-11-23T19:24:06.020Z,88.53
2022-11-23T19:26:34.091Z,88.70
2022-11-23T19:29:01.886Z,89.27
2022-11-23T19:31:31.716Z,89.64
2022-11-23T19:34:02.202Z,90.46
2022-11-23T19:36:32.153Z,90.62
2022-11-23T19:39:04.060Z,91.29
2022-11-23T19:41:32.583Z,91.49
2022-11-23T19:44:01.787Z,91.62
2022-11-23T19:46:31.414Z,92.00
2022-11-23T19:48:59.805Z,93.20
2022-11-23T19:51:28.403Z,92.66
2022-11-23T19:53:58.679Z,92.43
2022-11-23T19:56:28.692Z,92.37
2022-11-23T19:59:01.937Z,92.63
2022-11-23T20:01:34.742Z,92.67
2022-11-23T20:04:09.345Z,92.38
2022-11-23T20:06:43.296Z,92.41
2022-11-23T20:09:14.286Z,91.89
2022-11-23T20:11:45.855Z,91.93
2022-11-23T20:14:16.511Z,91.73
2022-11-23T20:16:44.271Z,91.26
2022-11-23T20:19:12.247Z,91.59
2022-11-23T20:21:40.048Z,91.39
2022-11-23T20:24:13.525Z,91.02
2022-11-23T20:26:42.318Z,91.57
2022-11-23T20:29:10.452Z,90.99
2022-11-23T20:31:38.929Z,91.11
2022-11-23T20:34:08.304Z,90.79
2022-11-23T20:36:38.688Z,90.58
2022-11-23T20:39:09.037Z,90.55
2022-11-23T20:41:38.374Z,90.53
2022-11-23T20:44:16.172Z,90.41
2022-11-23T20:49:32.656Z,90.37
2022-11-23T20:52:01.480Z,90.53
2022-11-23T20:54:29.278Z,90.36
2022-11-23T20:56:59.078Z,90.30
2022-11-23T20:59:27.305Z,90.04
2022-11-23T21:01:55.103Z,89.96
2022-11-23T21:04:22.831Z,90.07
2022-11-23T21:06:50.488Z,90.12
2022-11-23T21:09:18.232Z,90.05
2022-11-23T21:12:04.334Z,90.37
2022-11-23T21:14:33.872Z,90.46
2022-11-23T21:17:02.411Z,90.22
2022-11-23T21:19:32.741Z,90.44
2022-11-23T21:22:07.445Z,90.40
2022-11-23T21:24:36.513Z,90.24
2022-11-23T21:27:06.149Z,90.48
2022-11-23T21:29:34.553Z,90.45
2022-11-23T21:32:05.373Z,90.54
2022-11-23T21:34:33.358Z,90.29
2022-11-23T21:37:01.555Z,90.02
2022-11-23T21:39:32.095Z,90.17
2022-11-23T21:42:00.142Z,89.94
2022-11-23T21:44:28.261Z,89.76
2022-11-23T21:46:56.349Z,89.88
2022-11-23T21:49:24.383Z,90.01
2022-11-23T21:51:52.047Z,89.85
2022-11-23T21:54:19.837Z,89.98
2022-11-23T21:56:48.013Z,90.04
2022-11-23T21:59:15.760Z,89.92
2022-11-23T22:01:44.214Z,89.90
2022-11-23T22:04:16.814Z,89.90
2022-11-23T22:06:46.180Z,89.77
2022-11-23T22:09:14.171Z,89.75
2022-11-23T22:11:44.202Z,89.76
2022-11-23T22:14:14.400Z,89.62
2022-11-23T22:16:44.612Z,89.70
2022-11-23T22:19:14.223Z,89.41
2022-11-23T22:21:44.048Z,89.55
2022-11-23T22:24:17.372Z,89.31
2022-11-23T22:26:46.193Z,89.38
2022-11-23T22:29:14.225Z,89.09
2022-11-23T22:31:42.298Z,89.05
2022-11-23T22:34:13.249Z,88.87
2022-11-23T22:36:41.140Z,88.73
2022-11-23T22:39:09.372Z,88.93
2022-11-23T22:41:38.289Z,88.68
2022-11-23T22:44:08.120Z,88.82
2022-11-23T22:46:36.460Z,88.79
2022-11-23T22:49:04.468Z,88.75
2022-11-23T22:51:32.209Z,89.08
2022-11-23T22:54:01.259Z,89.13
2022-11-23T22:56:30.336Z,89.19
2022-11-23T22:58:58.189Z,89.47
2022-11-23T23:01:30.987Z,89.63
2022-11-23T23:04:03.438Z,89.40
2022-11-23T23:06:36.947Z,89.14
2022-11-23T23:09:07.167Z,89.24
2022-11-23T23:11:35.919Z,89.17
2022-11-23T23:14:03.856Z,89.40
2022-11-23T23:16:32.035Z,89.45
2022-11-23T23:19:00.668Z,89.29
2022-11-23T23:21:30.143Z,89.23
2022-11-23T23:24:00.309Z,89.22
2022-11-23T23:26:29.636Z,89.39
2022-11-23T23:28:59.266Z,90.17
2022-11-23T23:31:28.137Z,90.23
2022-11-23T23:33:56.229Z,90.46
2022-11-23T23:36:25.051Z,90.12
2022-11-23T23:38:53.170Z,90.30
2022-11-23T23:41:21.123Z,90.17
2022-11-23T23:43:51.668Z,90.18
2022-11-23T23:46:20.821Z,90.17
2022-11-23T23:48:48.651Z,90.15
2022-11-23T23:51:18.740Z,90.23
2022-11-23T23:53:47.430Z,90.18
2022-11-23T23:56:21.025Z,89.88
2022-11-23T23:58:49.480Z,90.00
